createdAt,value
2018-11-06T00:01:03.655Z,32.00
2018-11-06T00:03:37.608Z,31.37
2018-11-06T00:06:06.027Z,28.93
2018-11-06T00:08:34.432Z,29.10
2018-11-06T00:11:02.824Z,29.30
2018-11-06T00:13:31.236Z,31.93
2018-11-06T00:15:59.628Z,28.13
2018-11-06T00:18:28.236Z,26.63
2018-11-06T00:20:56.741Z,27.17
2018-11-06T00:23:25.151Z,28.63
2018-11-06T00:25:53.535Z,27.20
2018-11-06T00:28:21.964Z,26.93
2018-11-06T00:30:50.588Z,31.63
2018-11-06T00:33:19.071Z,29.37
2018-11-06T00:35:47.476Z,30.17
2018-11-06T00:38:15.899Z,29.00
2018-11-06T00:40:44.516Z,29.70
2018-11-06T00:43:13.015Z,27.67
2018-11-06T00:45:41.469Z,26.60
2018-11-06T00:48:10.084Z,26.47
2018-11-06T00:50:43.719Z,23.93
2018-11-06T00:53:12.421Z,26.63
2018-11-06T00:55:40.931Z,29.47
2018-11-06T00:58:09.453Z,27.47
2018-11-06T01:00:37.933Z,32.50
2018-11-06T01:03:06.329Z,28.67
2018-11-06T01:05:34.842Z,29.00
2018-11-06T01:08:03.231Z,25.47
2018-11-06T01:10:31.773Z,26.43
2018-11-06T01:13:00.182Z,25.00
2018-11-06T01:15:29.369Z,24.50
2018-11-06T01:17:57.912Z,23.77
2018-11-06T01:20:27.071Z,21.73
2018-11-06T01:22:55.777Z,21.27
2018-11-06T01:25:25.487Z,23.10
2018-11-06T01:27:54.796Z,25.53
2018-11-06T01:30:23.923Z,21.67
2018-11-06T01:32:52.451Z,22.03
2018-11-06T01:35:21.898Z,22.73
2018-11-06T01:37:50.279Z,24.00
2018-11-06T01:40:18.913Z,22.90
2018-11-06T01:42:48.220Z,22.60
2018-11-06T01:45:17.819Z,23.40
2018-11-06T01:47:46.244Z,23.37
2018-11-06T01:50:16.880Z,23.17
2018-11-06T01:52:46.896Z,21.70
2018-11-06T01:55:15.626Z,21.47
2018-11-06T01:57:44.125Z,22.80
2018-11-06T02:00:16.584Z,24.73
2018-11-06T02:02:46.023Z,27.97
2018-11-06T02:05:15.667Z,27.53
2018-11-06T02:07:45.572Z,29.60
2018-11-06T02:10:14.992Z,25.63
2018-11-06T02:12:44.796Z,22.40
2018-11-06T02:15:13.318Z,20.70
2018-11-06T02:17:43.444Z,20.43
2018-11-06T02:20:13.082Z,22.10
2018-11-06T02:22:42.772Z,22.50
2018-11-06T02:25:11.834Z,26.87
2018-11-06T02:27:41.059Z,27.03
2018-11-06T02:30:10.824Z,30.00
2018-11-06T02:32:40.812Z,29.60
2018-11-06T02:35:09.253Z,29.17
2018-11-06T02:37:38.146Z,34.37
2018-11-06T02:40:08.517Z,39.73
2018-11-06T02:42:56.642Z,38.00
2018-11-06T02:45:25.266Z,35.93
2018-11-06T02:47:53.894Z,36.33
2018-11-06T02:50:23.092Z,37.70
2018-11-06T02:52:51.590Z,38.07
2018-11-06T02:55:20.224Z,40.63
2018-11-06T02:57:49.052Z,41.53
2018-11-06T03:00:17.916Z,40.63
2018-11-06T03:02:47.484Z,37.10
2018-11-06T03:05:16.222Z,38.00
2018-11-06T03:07:44.651Z,40.73
2018-11-06T03:10:13.899Z,39.00
2018-11-06T03:12:42.983Z,43.00
2018-11-06T03:15:13.231Z,44.50
2018-11-06T03:17:42.851Z,42.60
2018-11-06T03:20:11.962Z,46.63
2018-11-06T03:22:40.804Z,50.13
2018-11-06T03:25:09.479Z,49.93
2018-11-06T03:27:37.998Z,50.27
2018-11-06T03:30:07.504Z,51.73
2018-11-06T03:32:36.224Z,52.43
2018-11-06T03:35:06.236Z,48.63
2018-11-06T03:37:34.651Z,50.40
2018-11-06T03:40:04.119Z,54.17
2018-11-06T03:42:32.748Z,53.97
2018-11-06T03:45:01.287Z,55.10
2018-11-06T03:47:29.895Z,53.70
2018-11-06T03:49:58.313Z,53.30
2018-11-06T03:52:26.742Z,52.87
2018-11-06T03:54:55.156Z,52.67
2018-11-06T03:57:23.581Z,54.67
2018-11-06T03:59:52.011Z,51.37
2018-11-06T04:02:21.317Z,50.20
2018-11-06T04:04:50.847Z,50.53
2018-11-06T04:07:19.328Z,50.57
2018-11-06T04:09:49.631Z,49.03
2018-11-06T04:12:23.227Z,51.07
2018-11-06T04:14:51.738Z,49.30
2018-11-06T04:17:20.143Z,48.00
2018-11-06T04:19:48.672Z,43.83
2018-11-06T04:22:18.087Z,46.50
2018-11-06T04:24:47.137Z,47.47
2018-11-06T04:27:15.822Z,48.80
2018-11-06T04:29:46.013Z,48.50
2018-11-06T04:32:14.864Z,45.97
2018-11-06T04:34:43.374Z,44.70
2018-11-06T04:37:12.666Z,45.23
2018-11-06T04:39:41.172Z,46.13
2018-11-06T04:42:09.723Z,53.60
2018-11-06T04:44:39.441Z,52.17
2018-11-06T04:47:10.907Z,54.47
2018-11-06T04:49:40.012Z,62.67
2018-11-06T04:52:08.543Z,71.23
2018-11-06T04:54:37.180Z,69.07
2018-11-06T04:57:05.912Z,63.13
2018-11-06T04:59:34.667Z,77.10
2018-11-06T05:02:03.271Z,74.70
2018-11-06T05:04:31.862Z,73.40
2018-11-06T05:07:00.496Z,76.97
2018-11-06T05:09:29.414Z,72.13
2018-11-06T05:11:58.706Z,60.37
2018-11-06T05:14:28.128Z,66.20
2018-11-06T05:16:56.559Z,65.00
2018-11-06T05:19:24.971Z,69.77
2018-11-06T05:21:54.299Z,54.93
2018-11-06T05:24:24.173Z,69.67
2018-11-06T05:26:52.557Z,58.43
2018-11-06T05:29:20.955Z,61.07
2018-11-06T05:31:54.488Z,74.27
2018-11-06T05:34:22.930Z,67.87
2018-11-06T05:36:51.351Z,82.57
2018-11-06T05:39:19.789Z,85.30
2018-11-06T05:41:49.488Z,64.47
2018-11-06T05:44:18.238Z,54.07
2018-11-06T05:46:46.872Z,67.60
2018-11-06T05:49:15.266Z,56.67
2018-11-06T05:51:43.747Z,64.50
2018-11-06T05:54:13.094Z,69.03
2018-11-06T05:56:41.517Z,68.57
2018-11-06T05:59:10.344Z,64.90
2018-11-06T06:01:38.799Z,62.47
2018-11-06T06:04:07.406Z,65.27
2018-11-06T06:06:36.635Z,55.10
2018-11-06T06:09:06.139Z,61.70
2018-11-06T06:11:34.567Z,73.23
2018-11-06T06:14:02.998Z,63.90
2018-11-06T06:16:31.677Z,63.50
2018-11-06T06:19:00.923Z,53.83
2018-11-06T06:21:29.530Z,66.30
2018-11-06T06:23:57.951Z,63.63
2018-11-06T06:26:27.003Z,56.07
2018-11-06T06:28:55.735Z,56.40
2018-11-06T06:31:24.178Z,54.60
2018-11-06T06:33:53.615Z,61.07
2018-11-06T06:36:22.280Z,63.37
2018-11-06T06:38:51.073Z,48.60
2018-11-06T06:41:19.488Z,58.67
2018-11-06T06:43:47.928Z,55.23
2018-11-06T06:46:16.498Z,48.07
2018-11-06T06:48:44.861Z,43.97
2018-11-06T06:51:13.428Z,46.77
2018-11-06T06:53:42.071Z,41.50
2018-11-06T06:56:10.724Z,40.97
2018-11-06T06:58:39.346Z,43.97
2018-11-06T07:01:08.063Z,40.33
2018-11-06T07:03:36.580Z,45.20
2018-11-06T07:06:05.612Z,41.93
2018-11-06T07:08:34.128Z,41.83
2018-11-06T07:17:53.526Z,39.20
2018-11-06T07:20:23.548Z,42.57
2018-11-06T07:22:52.519Z,43.67
2018-11-06T07:25:21.399Z,43.00
2018-11-06T07:27:49.800Z,45.83
2018-11-06T07:30:21.567Z,42.50
2018-11-06T07:32:50.295Z,43.27
2018-11-06T07:35:19.644Z,48.87
2018-11-06T07:37:49.290Z,44.30
2018-11-06T07:40:18.994Z,45.27
2018-11-06T07:42:47.435Z,45.33
2018-11-06T07:45:19.159Z,43.77
2018-11-06T07:47:47.891Z,44.57
2018-11-06T07:50:16.414Z,43.47
2018-11-06T07:52:45.336Z,46.23
2018-11-06T07:55:15.119Z,43.53
2018-11-06T07:57:43.519Z,41.50
2018-11-06T08:00:17.551Z,42.27
2018-11-06T08:02:47.055Z,42.60
2018-11-06T08:05:16.186Z,41.90
2018-11-06T08:07:45.389Z,42.40
2018-11-06T08:10:13.810Z,39.53
2018-11-06T08:12:43.538Z,42.10
2018-11-06T08:15:12.633Z,40.30
2018-11-06T08:17:41.805Z,42.03
2018-11-06T08:20:10.279Z,41.70
2018-11-06T08:22:38.986Z,39.47
2018-11-06T08:25:08.858Z,41.10
2018-11-06T08:27:37.664Z,40.83
2018-11-06T08:30:06.303Z,40.67
2018-11-06T08:32:35.145Z,37.17
2018-11-06T08:35:03.515Z,37.07
2018-11-06T08:37:31.968Z,34.63
2018-11-06T08:40:00.452Z,34.97
2018-11-06T08:42:28.930Z,32.77
2018-11-06T08:44:57.249Z,33.80
2018-11-06T08:47:25.651Z,32.17
2018-11-06T08:49:54.041Z,31.23
2018-11-06T08:52:22.463Z,31.97
2018-11-06T08:54:50.883Z,31.07
2018-11-06T08:57:19.263Z,31.47
2018-11-06T08:59:47.727Z,31.33
2018-11-06T09:02:16.138Z,31.70
2018-11-06T09:04:44.516Z,29.13
2018-11-06T09:07:12.926Z,29.10
2018-11-06T09:09:41.341Z,29.57
2018-11-06T09:12:09.744Z,27.30
2018-11-06T09:14:38.152Z,28.47
2018-11-06T09:17:06.622Z,26.00
2018-11-06T09:19:34.979Z,24.03
2018-11-06T09:22:03.370Z,22.23
2018-11-06T09:24:31.755Z,21.63
2018-11-06T09:27:00.163Z,21.20
2018-11-06T09:29:28.563Z,21.20
2018-11-06T09:31:56.973Z,20.23
2018-11-06T09:34:25.366Z,19.13
2018-11-06T09:36:53.783Z,20.57
2018-11-06T09:39:22.192Z,21.30
2018-11-06T09:41:50.584Z,21.53
2018-11-06T09:44:19.205Z,21.13
2018-11-06T09:46:47.677Z,21.03
2018-11-06T09:49:16.080Z,21.50
2018-11-06T09:51:44.500Z,20.53
2018-11-06T09:54:12.892Z,20.70
2018-11-06T09:56:41.283Z,20.73
2018-11-06T09:59:09.905Z,20.47
2018-11-06T10:01:38.395Z,22.30
2018-11-06T10:04:06.779Z,21.73
2018-11-06T10:06:35.308Z,20.83
2018-11-06T10:09:04.741Z,23.10
2018-11-06T10:11:33.107Z,23.03
2018-11-06T10:14:01.563Z,21.57
2018-11-06T10:16:29.971Z,22.07
2018-11-06T10:18:58.359Z,22.77
2018-11-06T10:21:26.855Z,24.17
2018-11-06T10:23:55.168Z,23.63
2018-11-06T10:26:23.591Z,24.30
2018-11-06T10:28:52.012Z,23.53
2018-11-06T10:31:20.629Z,22.63
2018-11-06T10:33:49.099Z,23.90
2018-11-06T10:36:17.665Z,22.83
2018-11-06T10:38:46.051Z,24.23
2018-11-06T10:41:14.447Z,21.80
2018-11-06T10:43:42.851Z,23.37
2018-11-06T10:46:11.257Z,24.10
2018-11-06T10:48:39.655Z,24.80
2018-11-06T10:51:08.271Z,25.10
2018-11-06T10:53:36.759Z,24.60
2018-11-06T10:56:05.147Z,25.27
2018-11-06T10:58:33.627Z,25.67
2018-11-06T11:01:07.588Z,24.37
2018-11-06T11:03:40.802Z,23.73
2018-11-06T11:06:09.204Z,24.60
2018-11-06T11:08:37.586Z,24.20
2018-11-06T11:11:05.995Z,21.90
2018-11-06T11:13:34.419Z,22.43
2018-11-06T11:16:02.815Z,23.17
2018-11-06T11:18:31.228Z,23.97
2018-11-06T11:20:59.719Z,24.30
2018-11-06T11:23:28.115Z,24.97
2018-11-06T11:25:56.512Z,24.60
2018-11-06T11:28:24.907Z,25.60
2018-11-06T11:30:53.291Z,24.73
2018-11-06T11:33:21.698Z,23.53
2018-11-06T11:35:50.084Z,25.33
2018-11-06T11:38:18.475Z,25.53
2018-11-06T11:40:47.104Z,24.93
2018-11-06T11:43:15.591Z,26.17
2018-11-06T11:45:44.032Z,25.90
2018-11-06T11:48:12.370Z,25.67
2018-11-06T11:50:40.759Z,25.67
2018-11-06T11:53:09.147Z,25.37
2018-11-06T11:55:37.559Z,26.33
2018-11-06T11:58:05.943Z,25.83
2018-11-06T12:00:37.488Z,25.10
2018-11-06T12:03:06.290Z,28.67
2018-11-06T12:05:34.688Z,28.13
2018-11-06T12:08:03.071Z,28.23
2018-11-06T12:10:31.476Z,30.17
2018-11-06T12:12:59.873Z,28.27
2018-11-06T12:15:28.264Z,28.93
2018-11-06T12:17:56.679Z,26.80
2018-11-06T12:20:30.095Z,26.60
2018-11-06T12:22:58.503Z,27.93
2018-11-06T12:25:27.049Z,29.57
2018-11-06T12:27:55.300Z,29.57
2018-11-06T12:30:23.698Z,29.17
2018-11-06T12:32:52.312Z,30.33
2018-11-06T12:35:20.796Z,30.00
2018-11-06T12:37:49.755Z,23.47
2018-11-06T12:40:18.372Z,30.80
2018-11-06T12:42:46.951Z,30.47
2018-11-06T12:45:16.414Z,29.17
2018-11-06T12:47:45.408Z,30.23
2018-11-06T12:50:13.883Z,31.63
2018-11-06T12:52:42.463Z,31.37
2018-11-06T12:55:12.783Z,29.83
2018-11-06T12:57:41.174Z,30.77
2018-11-06T13:00:11.000Z,30.83
2018-11-06T13:02:39.391Z,32.07
2018-11-06T13:05:08.040Z,30.13
2018-11-06T13:07:37.128Z,30.13
2018-11-06T13:10:05.704Z,29.97
2018-11-06T13:12:34.028Z,28.67
2018-11-06T13:15:02.659Z,29.73
2018-11-06T13:17:31.208Z,30.07
2018-11-06T13:19:59.645Z,30.97
2018-11-06T13:22:28.293Z,29.73
2018-11-06T13:24:56.687Z,30.20
2018-11-06T13:27:25.077Z,28.90
2018-11-06T13:29:53.494Z,32.03
2018-11-06T13:32:21.940Z,29.30
2018-11-06T13:34:50.284Z,30.00
2018-11-06T13:37:18.692Z,29.57
2018-11-06T13:39:47.083Z,29.37
2018-11-06T13:42:15.548Z,29.30
2018-11-06T13:44:44.206Z,29.43
2018-11-06T13:47:12.282Z,27.07
2018-11-06T13:49:40.676Z,30.13
2018-11-06T13:52:09.127Z,31.17
2018-11-06T13:54:37.473Z,29.43
2018-11-06T13:57:05.868Z,31.37
2018-11-06T13:59:34.293Z,30.90
2018-11-06T14:02:02.679Z,30.70
2018-11-06T14:04:31.064Z,30.47
2018-11-06T14:06:59.511Z,30.77
2018-11-06T14:09:27.900Z,30.47
2018-11-06T14:11:56.515Z,29.63
2018-11-06T14:14:25.019Z,31.03
2018-11-06T14:16:53.448Z,31.00
2018-11-06T14:19:21.836Z,31.87
2018-11-06T14:21:50.259Z,31.47
2018-11-06T14:24:18.869Z,30.73
2018-11-06T14:26:47.365Z,29.97
2018-11-06T14:29:15.755Z,31.47
2018-11-06T14:31:44.199Z,29.67
2018-11-06T14:34:12.545Z,31.53
2018-11-06T14:36:40.948Z,31.00
2018-11-06T14:39:09.335Z,30.43
2018-11-06T14:41:37.785Z,29.73
2018-11-06T14:44:06.290Z,29.20
2018-11-06T14:46:34.679Z,31.43
2018-11-06T14:49:03.176Z,31.13
2018-11-06T14:51:31.479Z,29.67
2018-11-06T14:53:59.884Z,30.67
2018-11-06T14:56:28.260Z,30.77
2018-11-06T14:58:56.668Z,31.23
2018-11-06T15:01:25.055Z,30.43
2018-11-06T15:03:53.447Z,29.83
2018-11-06T15:06:21.859Z,30.10
2018-11-06T15:08:50.256Z,29.90
2018-11-06T15:11:18.638Z,31.60
2018-11-06T15:13:47.059Z,29.27
2018-11-06T15:16:15.463Z,29.33
2018-11-06T15:18:43.848Z,29.80
2018-11-06T15:21:12.251Z,26.33
2018-11-06T15:23:40.867Z,28.43
2018-11-06T15:26:09.360Z,30.23
2018-11-06T15:28:37.828Z,30.63
2018-11-06T15:31:06.543Z,26.93
2018-11-06T15:33:35.046Z,30.87
2018-11-06T15:36:03.443Z,32.70
2018-11-06T15:38:31.831Z,30.20
2018-11-06T15:41:00.342Z,31.83
2018-11-06T15:43:28.876Z,31.77
2018-11-06T15:45:57.360Z,32.47
2018-11-06T15:48:25.786Z,30.47
2018-11-06T15:50:54.137Z,31.43
2018-11-06T15:53:22.528Z,34.30
2018-11-06T15:55:50.915Z,32.97
2018-11-06T15:58:19.337Z,35.10
2018-11-06T16:00:48.624Z,31.70
2018-11-06T16:03:17.235Z,32.73
2018-11-06T16:05:45.777Z,31.10
2018-11-06T16:08:14.184Z,31.30
2018-11-06T16:10:42.569Z,32.30
2018-11-06T16:13:10.983Z,32.87
2018-11-06T16:15:39.380Z,29.97
2018-11-06T16:18:07.777Z,29.23
2018-11-06T16:20:46.291Z,28.40
2018-11-06T16:23:14.651Z,26.70
2018-11-06T16:25:43.275Z,28.20
2018-11-06T16:28:11.791Z,26.13
2018-11-06T16:30:40.439Z,25.83
2018-11-06T16:33:08.923Z,26.97
2018-11-06T16:35:37.342Z,26.83
2018-11-06T16:38:05.727Z,25.57
2018-11-06T16:40:34.132Z,28.57
2018-11-06T16:43:02.557Z,28.90
2018-11-06T16:45:31.173Z,29.77
2018-11-06T16:47:59.650Z,29.97
2018-11-06T16:50:28.073Z,30.10
2018-11-06T16:52:56.469Z,27.77
2018-11-06T16:55:24.859Z,28.10
2018-11-06T16:57:53.265Z,26.40
2018-11-06T17:00:23.481Z,30.43
2018-11-06T17:02:51.677Z,31.03
2018-11-06T17:05:20.314Z,32.00
2018-11-06T17:07:49.541Z,30.87
2018-11-06T17:10:18.572Z,26.93
2018-11-06T17:12:46.975Z,25.00
2018-11-06T17:15:17.577Z,26.80
2018-11-06T17:17:46.746Z,25.70
2018-11-06T17:20:15.588Z,26.63
2018-11-06T17:22:43.988Z,29.07
2018-11-06T17:25:15.608Z,29.70
2018-11-06T17:27:44.037Z,28.33
2018-11-06T17:30:13.751Z,29.10
2018-11-06T17:32:42.500Z,26.23
2018-11-06T17:35:11.856Z,31.83
2018-11-06T17:37:40.565Z,33.53
2018-11-06T17:40:11.248Z,34.77
2018-11-06T17:42:40.039Z,32.03
2018-11-06T17:45:10.953Z,31.73
2018-11-06T17:47:39.851Z,29.57
2018-11-06T17:50:09.126Z,41.53
2018-11-06T17:52:37.583Z,45.40
2018-11-06T17:55:06.311Z,53.07
2018-11-06T17:57:34.987Z,50.93
2018-11-06T18:00:03.448Z,40.53
2018-11-06T18:02:31.907Z,32.23
2018-11-06T18:05:00.544Z,31.50
2018-11-06T18:07:29.252Z,28.30
2018-11-06T18:09:57.736Z,30.43
2018-11-06T18:12:26.151Z,27.80
2018-11-06T18:14:54.536Z,29.10
2018-11-06T18:17:23.768Z,27.50
2018-11-06T18:19:52.148Z,30.93
2018-11-06T18:22:20.563Z,29.23
2018-11-06T18:24:48.976Z,32.97
2018-11-06T18:27:17.389Z,30.53
2018-11-06T18:29:45.800Z,29.83
2018-11-06T18:32:14.256Z,29.73
2018-11-06T18:34:42.599Z,31.77
2018-11-06T18:37:10.999Z,34.17
2018-11-06T18:39:39.391Z,37.33
2018-11-06T18:42:08.040Z,39.17
2018-11-06T18:44:36.649Z,38.50
2018-11-06T18:47:05.638Z,37.67
2018-11-06T18:49:34.131Z,35.50
2018-11-06T18:52:02.522Z,32.23
2018-11-06T18:54:31.136Z,31.63
2018-11-06T18:56:59.638Z,29.20
2018-11-06T18:59:28.040Z,27.80
2018-11-06T19:01:56.428Z,27.10
2018-11-06T19:04:25.329Z,26.63
2018-11-06T19:06:53.747Z,28.53
2018-11-06T19:09:22.143Z,25.70
2018-11-06T19:11:50.548Z,28.30
2018-11-06T19:14:18.952Z,33.83
2018-11-06T19:16:47.359Z,30.23
2018-11-06T19:19:15.760Z,30.23
2018-11-06T19:21:44.404Z,30.20
2018-11-06T19:24:13.208Z,27.50
2018-11-06T19:26:41.636Z,30.10
2018-11-06T19:31:53.323Z,31.43
2018-11-06T19:34:21.703Z,28.30
2018-11-06T19:36:50.108Z,27.30
2018-11-06T19:39:18.520Z,25.77
2018-11-06T19:41:46.918Z,24.60
2018-11-06T19:44:15.313Z,26.27
2018-11-06T19:46:43.735Z,24.37
2018-11-06T19:49:12.136Z,26.43
2018-11-06T19:51:40.540Z,22.83
2018-11-06T19:54:08.982Z,25.33
2018-11-06T19:56:37.383Z,24.00
2018-11-06T19:59:05.759Z,24.43
2018-11-06T20:01:34.220Z,23.57
2018-11-06T20:04:02.618Z,24.27
2018-11-06T20:06:31.012Z,22.17
2018-11-06T20:08:59.697Z,24.03
2018-11-06T20:11:28.180Z,22.93
2018-11-06T20:13:56.839Z,22.53
2018-11-06T20:16:25.245Z,23.67
2018-11-06T20:18:53.639Z,22.93
2018-11-06T20:21:22.069Z,23.80
2018-11-06T20:23:50.438Z,24.07
2018-11-06T20:26:18.852Z,70.70
2018-11-06T20:28:47.260Z,72.23
2018-11-06T20:31:15.688Z,54.23
2018-11-06T20:33:44.317Z,43.33
2018-11-06T20:36:13.480Z,39.43
2018-11-06T20:38:41.894Z,36.53
2018-11-06T20:41:10.297Z,35.43
2018-11-06T20:43:38.680Z,35.67
2018-11-06T20:46:07.126Z,35.53
2018-11-06T20:48:35.504Z,34.00
2018-11-06T20:51:03.899Z,33.07
2018-11-06T20:53:32.388Z,29.43
2018-11-06T20:56:00.770Z,30.00
2018-11-06T20:58:29.203Z,30.37
2018-11-06T21:00:57.858Z,27.80
2018-11-06T21:03:26.239Z,27.33
2018-11-06T21:05:54.641Z,27.33
2018-11-06T21:08:23.030Z,25.97
2018-11-06T21:10:51.513Z,24.23
2018-11-06T21:13:19.935Z,24.77
2018-11-06T21:15:48.246Z,22.37
2018-11-06T21:18:16.652Z,23.20
2018-11-06T21:20:45.044Z,21.57
2018-11-06T21:23:13.459Z,20.03
2018-11-06T21:25:42.171Z,22.10
2018-11-06T21:28:10.234Z,23.07
2018-11-06T21:30:38.660Z,23.20
2018-11-06T21:33:07.052Z,22.27
2018-11-06T21:35:35.467Z,23.00
2018-11-06T21:38:03.871Z,22.37
2018-11-06T21:40:32.287Z,22.77
2018-11-06T21:43:00.671Z,23.03
2018-11-06T21:45:29.121Z,23.77
2018-11-06T21:47:57.476Z,23.67
2018-11-06T21:50:25.865Z,21.90
2018-11-06T21:52:54.285Z,21.03
2018-11-06T21:55:22.678Z,23.37
2018-11-06T21:57:51.067Z,22.63
2018-11-06T22:00:20.594Z,22.57
2018-11-06T22:02:48.963Z,22.93
2018-11-06T22:05:18.647Z,22.50
2018-11-06T22:07:47.177Z,20.77
2018-11-06T22:10:16.900Z,23.13
2018-11-06T22:12:45.665Z,23.97
2018-11-06T22:15:15.174Z,25.50
2018-11-06T22:17:43.579Z,23.37
2018-11-06T22:20:14.087Z,23.80
2018-11-06T22:22:43.489Z,25.17
2018-11-06T22:25:11.884Z,25.50
2018-11-06T22:27:40.276Z,25.23
2018-11-06T22:30:09.586Z,24.00
2018-11-06T22:32:38.148Z,23.10
2018-11-06T22:35:07.114Z,22.17
2018-11-06T22:37:35.532Z,25.10
2018-11-06T22:40:03.937Z,21.40
2018-11-06T22:42:32.327Z,23.63
2018-11-06T22:45:00.731Z,21.20
2018-11-06T22:47:29.350Z,19.23
2018-11-06T22:49:57.823Z,18.77
2018-11-06T22:52:26.236Z,18.77
2018-11-06T22:54:54.627Z,17.83
2018-11-06T22:57:23.016Z,19.23
2018-11-06T22:59:51.423Z,16.73
2018-11-06T23:02:19.822Z,17.87
2018-11-06T23:04:48.211Z,17.50
2018-11-06T23:07:22.014Z,17.97
2018-11-06T23:09:50.400Z,18.27
2018-11-06T23:12:18.803Z,20.63
2018-11-06T23:14:47.223Z,19.77
2018-11-06T23:17:15.642Z,18.47
2018-11-06T23:19:44.176Z,19.10
2018-11-06T23:22:12.577Z,18.77
2018-11-06T23:24:40.983Z,19.30
2018-11-06T23:27:09.379Z,20.30
2018-11-06T23:29:37.792Z,18.00
2018-11-06T23:32:06.189Z,24.27
2018-11-06T23:34:34.579Z,25.13
2018-11-06T23:37:03.063Z,20.80
2018-11-06T23:39:31.479Z,31.10
2018-11-06T23:41:59.921Z,25.60
2018-11-06T23:44:28.286Z,22.17
2018-11-06T23:46:56.684Z,24.13
2018-11-06T23:49:25.073Z,24.03
2018-11-06T23:51:53.571Z,20.53
2018-11-06T23:54:21.966Z,20.00
2018-11-06T23:56:50.347Z,19.00
2018-11-06T23:59:18.972Z,18.03
